createdAt,value
2019-03-21T00:00:49.674Z,103037.54
2019-03-21T00:01:57.834Z,103033.12
2019-03-21T00:03:04.410Z,103037.34
2019-03-21T00:04:12.504Z,103037.06
2019-03-21T00:05:18.200Z,103039.38
2019-03-21T00:06:24.496Z,103036.31
2019-03-21T00:07:30.524Z,103037.30
2019-03-21T00:08:37.179Z,103040.67
2019-03-21T00:10:03.373Z,103036.36
2019-03-21T00:11:34.156Z,103033.12
2019-03-21T00:12:40.179Z,103039.31
2019-03-21T00:13:46.214Z,103036.36
2019-03-21T00:15:33.334Z,103038.66
2019-03-21T00:16:39.507Z,103034.19
2019-03-21T00:17:51.986Z,103038.75
2019-03-21T00:18:59.634Z,103038.52
2019-03-21T00:20:07.120Z,103038.64
2019-03-21T00:21:14.025Z,103041.02
2019-03-21T00:22:20.894Z,103037.54
2019-03-21T00:23:28.347Z,103041.75
2019-03-21T00:24:34.581Z,103040.77
2019-03-21T00:25:40.690Z,103041.50
2019-03-21T00:26:46.221Z,103043.80
2019-03-21T00:27:52.001Z,103041.86
2019-03-21T00:28:59.027Z,103042.41
2019-03-21T00:30:05.764Z,103043.14
2019-03-21T00:31:11.582Z,103045.19
2019-03-21T00:32:17.641Z,103040.13
2019-03-21T00:33:23.419Z,103044.52
2019-03-21T00:34:30.256Z,103044.80
2019-03-21T00:35:38.523Z,103044.42
2019-03-21T00:36:44.137Z,103045.47
2019-03-21T00:37:50.030Z,103047.17
2019-03-21T00:38:56.166Z,103051.27
2019-03-21T00:40:02.240Z,103048.39
2019-03-21T00:41:08.572Z,103048.41
2019-03-21T00:42:14.356Z,103054.75
2019-03-21T00:43:20.735Z,103051.54
2019-03-21T00:44:27.122Z,103049.23
2019-03-21T00:45:33.516Z,103047.70
2019-03-21T00:46:39.634Z,103048.59
2019-03-21T00:47:45.617Z,103044.55
2019-03-21T00:48:53.434Z,103048.95
2019-03-21T00:50:00.373Z,103052.16
2019-03-21T00:51:07.199Z,103047.34
2019-03-21T00:52:14.053Z,103044.23
2019-03-21T00:53:20.086Z,103042.58
2019-03-21T00:54:26.165Z,103045.70
2019-03-21T00:55:32.869Z,103046.55
2019-03-21T00:56:38.683Z,103042.89
2019-03-21T00:57:45.058Z,103044.53
2019-03-21T00:58:51.760Z,103043.35
2019-03-21T00:59:57.959Z,103044.72
2019-03-21T01:01:04.120Z,103039.82
2019-03-21T01:02:10.170Z,103039.30
2019-03-21T01:03:16.388Z,103041.19
2019-03-21T01:04:23.826Z,103039.83
2019-03-21T01:05:30.163Z,103040.19
2019-03-21T01:06:35.930Z,103046.94
2019-03-21T01:07:43.153Z,103039.08
2019-03-21T01:08:50.112Z,103039.23
2019-03-21T01:09:56.683Z,103044.72
2019-03-21T01:11:02.771Z,103041.30
2019-03-21T01:12:09.512Z,103047.36
2019-03-21T01:13:15.692Z,103045.28
2019-03-21T01:14:29.340Z,103040.19
2019-03-21T01:15:29.260Z,103044.34
2019-03-21T01:16:35.810Z,103040.30
2019-03-21T01:17:42.181Z,103038.97
2019-03-21T01:18:47.776Z,103038.77
2019-03-21T01:19:53.943Z,103039.45
2019-03-21T01:21:00.686Z,103037.72
2019-03-21T01:22:06.705Z,103035.78
2019-03-21T01:23:13.104Z,103038.16
2019-03-21T01:24:19.402Z,103037.51
2019-03-21T01:25:31.546Z,103038.80
2019-03-21T01:26:37.689Z,103036.55
2019-03-21T01:27:44.615Z,103036.78
2019-03-21T01:28:50.389Z,103034.18
2019-03-21T01:29:57.267Z,103035.73
2019-03-21T01:31:03.815Z,103034.03
2019-03-21T01:32:11.018Z,103033.78
2019-03-21T01:33:17.715Z,103036.93
2019-03-21T01:34:24.186Z,103030.36
2019-03-21T01:35:30.222Z,103031.52
2019-03-21T01:36:37.349Z,103041.76
2019-03-21T01:37:43.273Z,103035.60
2019-03-21T01:38:50.966Z,103036.08
2019-03-21T01:39:57.704Z,103026.08
2019-03-21T01:41:03.762Z,103034.52
2019-03-21T01:42:09.485Z,103035.00
2019-03-21T01:43:15.317Z,103032.40
2019-03-21T01:44:21.895Z,103028.39
2019-03-21T01:45:27.964Z,103034.03
2019-03-21T01:46:34.067Z,103029.69
2019-03-21T01:47:41.049Z,103027.64
2019-03-21T01:48:47.157Z,103032.20
2019-03-21T01:49:54.479Z,103028.94
2019-03-21T01:51:01.010Z,103033.61
2019-03-21T01:52:07.071Z,103029.45
2019-03-21T01:53:14.349Z,103029.59
2019-03-21T01:54:20.361Z,103026.76
2019-03-21T01:55:26.368Z,103028.69
2019-03-21T01:56:32.600Z,103029.83
2019-03-21T01:57:38.450Z,103034.82
2019-03-21T01:58:44.783Z,103028.21
2019-03-21T01:59:51.794Z,103029.98
2019-03-21T02:00:57.845Z,103031.76
2019-03-21T02:02:05.511Z,103029.69
2019-03-21T02:03:11.308Z,103027.50
2019-03-21T02:04:17.359Z,103029.03
2019-03-21T02:05:23.130Z,103029.75
2019-03-21T02:06:29.232Z,103025.33
2019-03-21T02:07:35.824Z,103024.52
2019-03-21T02:08:43.247Z,103029.17
2019-03-21T02:09:49.008Z,103022.73
2019-03-21T02:10:54.754Z,103026.69
2019-03-21T02:12:01.398Z,103021.36
2019-03-21T02:13:09.071Z,103020.11
2019-03-21T02:14:15.861Z,103021.40
2019-03-21T02:15:21.687Z,103020.95
2019-03-21T02:16:27.431Z,103016.90
2019-03-21T02:17:33.748Z,103019.44
2019-03-21T02:18:39.743Z,103020.89
2019-03-21T02:19:46.718Z,103018.59
2019-03-21T02:20:54.166Z,103018.67
2019-03-21T02:22:01.045Z,103020.04
2019-03-21T02:23:07.946Z,103017.33
2019-03-21T02:24:13.470Z,103014.02
2019-03-21T02:25:21.621Z,103010.44
2019-03-21T02:26:27.180Z,103011.83
2019-03-21T02:27:34.308Z,103011.02
2019-03-21T02:28:41.520Z,103012.73
2019-03-21T02:29:48.157Z,103019.27
2019-03-21T02:30:54.017Z,103014.11
2019-03-21T02:31:59.962Z,103015.40
2019-03-21T02:33:21.640Z,103007.97
2019-03-21T02:34:27.446Z,103012.31
2019-03-21T02:35:33.572Z,103010.28
2019-03-21T02:36:39.355Z,103005.52
2019-03-21T02:37:45.105Z,103013.42
2019-03-21T02:38:51.680Z,103013.52
2019-03-21T02:40:00.217Z,103010.63
2019-03-21T02:41:07.206Z,103013.02
2019-03-21T02:42:14.197Z,103010.20
2019-03-21T02:43:20.818Z,103006.51
2019-03-21T02:44:27.343Z,103010.70
2019-03-21T02:45:34.186Z,103009.95
2019-03-21T02:46:40.786Z,103012.15
2019-03-21T02:47:46.529Z,103006.91
2019-03-21T02:48:53.470Z,103012.31
2019-03-21T02:50:00.629Z,103012.29
2019-03-21T02:51:06.721Z,103005.98
2019-03-21T02:52:13.276Z,103009.70
2019-03-21T02:53:19.598Z,103005.83
2019-03-21T02:54:26.217Z,103002.53
2019-03-21T02:55:31.955Z,103003.34
2019-03-21T02:56:39.747Z,103005.22
2019-03-21T02:57:46.211Z,103005.30
2019-03-21T02:58:51.991Z,103006.82
2019-03-21T02:59:58.867Z,103009.42
2019-03-21T03:01:05.557Z,103007.56
2019-03-21T03:02:11.970Z,103007.58
2019-03-21T03:03:17.533Z,103010.61
2019-03-21T03:04:23.860Z,103008.44
2019-03-21T03:05:30.710Z,103006.34
2019-03-21T03:06:37.258Z,103005.46
2019-03-21T03:07:43.294Z,103005.45
2019-03-21T03:08:49.591Z,103007.69
2019-03-21T03:09:56.533Z,103004.38
2019-03-21T03:11:02.261Z,103007.78
2019-03-21T03:12:08.049Z,103010.61
2019-03-21T03:13:14.702Z,103010.95
2019-03-21T03:14:20.812Z,103011.73
2019-03-21T03:15:27.879Z,103009.18
2019-03-21T03:16:33.484Z,103007.16
2019-03-21T03:17:40.227Z,103011.34
2019-03-21T03:18:47.154Z,103011.73
2019-03-21T03:19:54.907Z,103006.19
2019-03-21T03:21:02.038Z,103007.45
2019-03-21T03:22:08.741Z,103009.18
2019-03-21T03:23:15.731Z,103007.69
2019-03-21T03:24:23.466Z,103012.95
2019-03-21T03:25:30.099Z,103010.13
2019-03-21T03:26:37.329Z,103011.31
2019-03-21T03:27:43.270Z,103016.00
2019-03-21T03:28:49.068Z,103014.23
2019-03-21T03:29:55.190Z,103015.36
2019-03-21T03:31:01.804Z,103014.48
2019-03-21T03:32:08.709Z,103012.77
2019-03-21T03:33:14.754Z,103013.48
2019-03-21T03:34:20.513Z,103008.95
2019-03-21T03:35:26.839Z,103016.25
2019-03-21T03:36:34.054Z,103016.21
2019-03-21T03:37:40.989Z,103009.40
2019-03-21T03:38:47.856Z,103007.30
2019-03-21T03:39:54.058Z,103013.23
2019-03-21T03:41:01.094Z,103008.06
2019-03-21T03:42:07.585Z,103010.34
2019-03-21T03:43:14.373Z,103008.80
2019-03-21T03:44:20.120Z,103012.70
2019-03-21T03:45:37.519Z,103015.25
2019-03-21T03:46:35.885Z,103015.91
2019-03-21T03:47:42.430Z,103014.30
2019-03-21T03:48:49.058Z,103020.14
2019-03-21T03:49:55.234Z,103009.64
2019-03-21T03:51:02.181Z,103016.07
2019-03-21T03:52:07.698Z,103015.66
2019-03-21T03:53:13.783Z,103012.08
2019-03-21T03:54:20.320Z,103016.69
2019-03-21T03:55:27.165Z,103016.11
2019-03-21T03:56:34.054Z,103020.24
2019-03-21T03:57:40.392Z,103021.25
2019-03-21T03:58:47.440Z,103016.02
2019-03-21T03:59:54.829Z,103021.27
2019-03-21T04:01:00.996Z,103017.02
2019-03-21T04:02:06.804Z,103017.94
2019-03-21T04:03:13.190Z,103019.81
2019-03-21T04:04:19.541Z,103017.66
2019-03-21T04:05:26.205Z,103025.71
2019-03-21T04:06:32.235Z,103022.55
2019-03-21T04:07:38.594Z,103020.90
2019-03-21T04:08:45.983Z,103021.38
2019-03-21T04:09:52.372Z,103027.09
2019-03-21T04:10:58.470Z,103022.55
2019-03-21T04:12:05.833Z,103021.78
2019-03-21T04:13:12.678Z,103030.73
2019-03-21T04:14:19.032Z,103028.38
2019-03-21T04:15:25.663Z,103030.02
2019-03-21T04:16:33.373Z,103027.34
2019-03-21T04:17:39.978Z,103028.56
2019-03-21T04:18:46.026Z,103034.74
2019-03-21T04:19:51.803Z,103031.22
2019-03-21T04:20:58.522Z,103029.59
2019-03-21T04:22:05.113Z,103024.43
2019-03-21T04:23:10.965Z,103029.45
2019-03-21T04:24:17.399Z,103033.91
2019-03-21T04:25:27.127Z,103034.30
2019-03-21T04:26:33.134Z,103035.90
2019-03-21T04:27:39.704Z,103037.89
2019-03-21T04:28:45.861Z,103030.83
2019-03-21T04:29:52.757Z,103034.27
2019-03-21T04:30:59.706Z,103029.41
2019-03-21T04:32:06.241Z,103031.35
2019-03-21T04:33:12.296Z,103036.37
2019-03-21T04:34:18.871Z,103033.34
2019-03-21T04:35:25.483Z,103033.26
2019-03-21T04:36:31.270Z,103034.77
2019-03-21T04:37:39.065Z,103034.97
2019-03-21T04:38:45.448Z,103031.50
2019-03-21T04:39:52.557Z,103029.87
2019-03-21T04:40:59.386Z,103030.20
2019-03-21T04:42:05.179Z,103033.39
2019-03-21T04:43:11.081Z,103037.28
2019-03-21T04:44:17.638Z,103036.19
2019-03-21T04:45:23.428Z,103035.31
2019-03-21T04:46:30.313Z,103041.62
2019-03-21T04:47:36.353Z,103036.11
2019-03-21T04:48:42.638Z,103037.63
2019-03-21T04:49:48.526Z,103029.55
2019-03-21T04:50:55.543Z,103036.16
2019-03-21T04:52:01.604Z,103034.07
2019-03-21T04:53:07.617Z,103039.59
2019-03-21T04:54:14.221Z,103036.47
2019-03-21T04:55:20.059Z,103037.55
2019-03-21T04:56:26.024Z,103036.26
2019-03-21T04:57:32.283Z,103038.61
2019-03-21T04:58:38.089Z,103036.86
2019-03-21T04:59:44.920Z,103040.39
2019-03-21T05:00:51.154Z,103040.23
2019-03-21T05:02:01.251Z,103038.06
2019-03-21T05:03:07.843Z,103042.23
2019-03-21T05:04:15.178Z,103040.21
2019-03-21T05:05:22.083Z,103034.14
2019-03-21T05:06:29.627Z,103039.97
2019-03-21T05:07:36.512Z,103036.92
2019-03-21T05:08:42.949Z,103036.04
2019-03-21T05:09:50.352Z,103037.13
2019-03-21T05:10:56.136Z,103040.38
2019-03-21T05:12:03.155Z,103042.48
2019-03-21T05:13:09.584Z,103041.50
2019-03-21T05:14:16.942Z,103041.00
2019-03-21T05:15:31.777Z,103038.22
2019-03-21T05:16:37.556Z,103042.34
2019-03-21T05:17:43.342Z,103041.16
2019-03-21T05:18:49.532Z,103044.81
2019-03-21T05:19:56.152Z,103041.05
2019-03-21T05:21:02.400Z,103039.09
2019-03-21T05:22:08.452Z,103040.34
2019-03-21T05:23:14.254Z,103039.98
2019-03-21T05:24:20.032Z,103044.61
2019-03-21T05:25:26.626Z,103041.62
2019-03-21T05:26:33.444Z,103042.70
2019-03-21T05:27:39.495Z,103052.30
2019-03-21T05:28:46.406Z,103044.28
2019-03-21T05:29:55.276Z,103045.52
2019-03-21T05:31:04.472Z,103046.13
2019-03-21T05:32:10.806Z,103052.05
2019-03-21T05:33:16.893Z,103051.16
2019-03-21T05:34:23.175Z,103058.16
2019-03-21T05:35:29.486Z,103051.72
2019-03-21T05:36:36.386Z,103053.49
2019-03-21T05:37:42.697Z,103049.91
2019-03-21T05:38:49.588Z,103054.72
2019-03-21T05:39:57.029Z,103052.76
2019-03-21T05:41:03.069Z,103060.22
2019-03-21T05:42:12.876Z,103050.66
2019-03-21T05:43:21.982Z,103051.11
2019-03-21T05:44:32.116Z,103055.39
2019-03-21T05:45:39.226Z,103061.04
2019-03-21T05:46:45.324Z,103059.19
2019-03-21T05:47:51.740Z,103064.70
2019-03-21T05:48:58.495Z,103058.05
2019-03-21T05:50:05.213Z,103062.53
2019-03-21T05:51:12.105Z,103063.06
2019-03-21T05:52:18.682Z,103065.98
2019-03-21T05:53:24.809Z,103056.87
2019-03-21T05:54:31.344Z,103061.67
2019-03-21T05:55:37.646Z,103069.81
2019-03-21T05:56:44.512Z,103068.09
2019-03-21T05:57:50.573Z,103069.09
2019-03-21T05:58:57.919Z,103072.34
2019-03-21T06:00:05.033Z,103068.23
2019-03-21T06:01:11.073Z,103069.30
2019-03-21T06:02:17.592Z,103065.59
2019-03-21T06:03:29.211Z,103070.53
2019-03-21T06:04:35.244Z,103070.45
2019-03-21T06:05:42.038Z,103063.05
2019-03-21T06:07:11.210Z,103074.27
2019-03-21T06:08:27.307Z,103072.45
2019-03-21T06:09:34.778Z,103076.52
2019-03-21T06:10:41.073Z,103073.05
2019-03-21T06:11:50.270Z,103079.70
2019-03-21T06:12:56.609Z,103082.49
2019-03-21T06:14:02.388Z,103082.55
2019-03-21T06:15:08.356Z,103083.44
2019-03-21T06:16:14.426Z,103086.96
2019-03-21T06:17:20.197Z,103082.02
2019-03-21T06:18:46.925Z,103088.76
2019-03-21T06:20:24.168Z,103087.50
2019-03-21T06:21:34.423Z,103087.65
2019-03-21T06:23:15.260Z,103087.59
2019-03-21T06:25:06.687Z,103082.61
2019-03-21T06:26:38.018Z,103081.02
2019-03-21T06:27:44.065Z,103085.07
2019-03-21T06:28:51.366Z,103084.89
2019-03-21T06:29:57.677Z,103087.31
2019-03-21T06:31:04.429Z,103089.42
2019-03-21T06:32:12.926Z,103081.94
2019-03-21T06:33:18.835Z,103081.13
2019-03-21T06:34:25.789Z,103084.80
2019-03-21T06:35:32.750Z,103081.67
2019-03-21T06:36:39.474Z,103081.20
2019-03-21T06:37:45.558Z,103080.30
2019-03-21T06:38:53.239Z,103082.65
2019-03-21T06:40:00.423Z,103079.92
2019-03-21T06:41:07.423Z,103078.61
2019-03-21T06:42:13.496Z,103083.27
2019-03-21T06:43:20.843Z,103087.95
2019-03-21T06:44:28.320Z,103084.84
2019-03-21T06:45:35.052Z,103087.98
2019-03-21T06:46:48.957Z,103085.89
2019-03-21T06:47:49.007Z,103086.09
2019-03-21T06:48:55.515Z,103087.95
2019-03-21T06:50:02.082Z,103085.62
2019-03-21T06:51:08.211Z,103090.93
2019-03-21T06:52:18.124Z,103082.94
2019-03-21T06:53:24.411Z,103084.83
2019-03-21T06:54:30.995Z,103087.23
2019-03-21T06:55:37.719Z,103085.95
2019-03-21T06:56:44.888Z,103088.45
2019-03-21T06:57:52.105Z,103087.63
2019-03-21T06:58:57.800Z,103081.36
2019-03-21T07:00:03.580Z,103084.34
2019-03-21T07:01:10.758Z,103089.36
2019-03-21T07:02:16.246Z,103087.79
2019-03-21T07:03:22.657Z,103091.56
2019-03-21T07:04:28.741Z,103090.23
2019-03-21T07:05:35.701Z,103096.31
2019-03-21T07:06:42.446Z,103089.82
2019-03-21T07:07:48.480Z,103093.18
2019-03-21T07:08:55.111Z,103088.41
2019-03-21T07:10:02.008Z,103092.08
2019-03-21T07:11:08.339Z,103090.22
2019-03-21T07:12:14.364Z,103089.47
2019-03-21T07:13:21.719Z,103090.61
2019-03-21T07:14:27.642Z,103089.75
2019-03-21T07:15:33.438Z,103088.86
2019-03-21T07:16:39.582Z,103092.48
2019-03-21T07:17:47.088Z,103095.22
2019-03-21T07:18:52.949Z,103096.34
2019-03-21T07:19:59.547Z,103088.19
2019-03-21T07:21:05.966Z,103083.83
2019-03-21T07:22:12.462Z,103085.19
2019-03-21T07:23:19.241Z,103086.06
2019-03-21T07:24:26.830Z,103087.40
2019-03-21T07:25:33.960Z,103090.77
2019-03-21T07:26:40.045Z,103090.88
2019-03-21T07:27:46.108Z,103084.89
2019-03-21T07:28:52.434Z,103079.73
2019-03-21T07:29:58.816Z,103082.03
2019-03-21T07:31:05.444Z,103077.00
2019-03-21T07:32:13.103Z,103085.89
2019-03-21T07:33:19.246Z,103079.45
2019-03-21T07:34:24.824Z,103078.52
2019-03-21T07:35:33.582Z,103076.98
2019-03-21T07:36:40.313Z,103077.05
2019-03-21T07:37:46.930Z,103078.50
2019-03-21T07:38:54.694Z,103074.52
2019-03-21T07:40:01.213Z,103079.83
2019-03-21T07:41:08.109Z,103081.25
2019-03-21T07:42:14.546Z,103082.56
2019-03-21T07:43:22.275Z,103074.16
2019-03-21T07:44:29.396Z,103086.03
2019-03-21T07:45:35.187Z,103072.53
2019-03-21T07:46:41.378Z,103078.44
2019-03-21T07:47:46.934Z,103077.49
2019-03-21T07:48:53.423Z,103075.67
2019-03-21T07:50:00.469Z,103075.31
2019-03-21T07:51:07.842Z,103070.94
2019-03-21T07:52:14.686Z,103082.77
2019-03-21T07:53:22.146Z,103080.20
2019-03-21T07:54:29.021Z,103079.58
2019-03-21T07:55:35.430Z,103080.96
2019-03-21T07:56:41.496Z,103077.50
2019-03-21T07:57:48.334Z,103081.50
2019-03-21T07:58:54.359Z,103081.06
2019-03-21T08:00:02.376Z,103083.98
2019-03-21T08:01:08.154Z,103077.73
2019-03-21T08:02:14.996Z,103078.35
2019-03-21T08:03:23.097Z,103080.16
2019-03-21T08:04:28.945Z,103083.45
2019-03-21T08:05:40.381Z,103087.75
2019-03-21T08:06:42.397Z,103081.22
2019-03-21T08:07:48.458Z,103091.16
2019-03-21T08:08:55.473Z,103087.14
2019-03-21T08:10:01.436Z,103087.42
2019-03-21T08:11:07.235Z,103092.62
2019-03-21T08:12:13.964Z,103081.82
2019-03-21T08:13:21.401Z,103073.64
2019-03-21T08:14:28.615Z,103078.98
2019-03-21T08:15:34.379Z,103082.92
2019-03-21T08:16:41.406Z,103077.48
2019-03-21T08:17:47.170Z,103073.41
2019-03-21T08:18:53.299Z,103080.02
2019-03-21T08:20:00.322Z,103074.94
2019-03-21T08:21:07.853Z,103077.61
2019-03-21T08:22:14.682Z,103076.39
2019-03-21T08:23:20.799Z,103071.33
2019-03-21T08:24:27.431Z,103067.39
2019-03-21T08:25:33.588Z,103076.45
2019-03-21T08:26:39.216Z,103071.39
2019-03-21T08:27:44.999Z,103071.26
2019-03-21T08:28:51.453Z,103054.78
2019-03-21T08:29:57.795Z,103055.95
2019-03-21T08:31:23.155Z,103042.69
2019-03-21T08:32:29.311Z,103034.16
2019-03-21T08:33:36.264Z,103034.34
2019-03-21T08:34:42.063Z,103027.18
2019-03-21T08:35:49.678Z,103027.81
2019-03-21T08:36:56.187Z,103027.81
2019-03-21T08:38:02.051Z,103018.42
2019-03-21T08:39:10.268Z,103021.48
2019-03-21T08:40:16.738Z,103023.66
2019-03-21T08:41:22.853Z,103034.66
2019-03-21T08:42:30.321Z,103016.16
2019-03-21T08:43:36.644Z,103002.45
2019-03-21T08:44:43.023Z,103008.82
2019-03-21T08:45:49.106Z,103002.28
2019-03-21T08:46:55.213Z,103011.57
2019-03-21T08:48:01.458Z,103016.22
2019-03-21T08:49:07.516Z,103009.59
2019-03-21T08:50:13.629Z,103003.77
2019-03-21T08:51:19.834Z,103009.19
2019-03-21T08:52:25.968Z,103001.52
2019-03-21T08:53:32.065Z,102991.55
2019-03-21T08:54:39.076Z,102986.73
2019-03-21T08:55:44.873Z,102995.08
2019-03-21T08:56:50.907Z,102989.52
2019-03-21T08:57:57.297Z,102986.95
2019-03-21T08:59:04.125Z,102980.81
2019-03-21T09:00:09.915Z,102982.41
2019-03-21T09:01:15.507Z,102977.73
2019-03-21T09:02:21.633Z,102976.63
2019-03-21T09:03:28.322Z,102973.26
2019-03-21T09:04:34.628Z,102973.52
2019-03-21T09:05:41.008Z,102974.48
2019-03-21T09:06:47.078Z,102971.83
2019-03-21T09:07:53.368Z,102969.09
2019-03-21T09:08:59.683Z,102972.19
2019-03-21T09:10:07.908Z,102958.64
2019-03-21T09:11:14.437Z,102962.85
2019-03-21T09:12:20.477Z,102968.09
2019-03-21T09:13:26.235Z,102961.20
2019-03-21T09:14:32.458Z,102966.72
2019-03-21T09:15:38.261Z,102960.41
2019-03-21T09:16:45.201Z,102955.06
2019-03-21T09:17:51.267Z,102959.25
2019-03-21T09:18:58.286Z,102955.27
2019-03-21T09:20:05.387Z,102958.22
2019-03-21T09:21:19.523Z,102952.28
2019-03-21T09:22:19.226Z,102950.49
2019-03-21T09:23:24.990Z,102945.50
2019-03-21T09:24:31.584Z,102949.42
2019-03-21T09:25:38.604Z,102950.48
2019-03-21T09:26:44.609Z,102953.16
2019-03-21T09:28:01.972Z,102954.16
2019-03-21T09:28:59.075Z,102951.56
2019-03-21T09:30:06.431Z,102955.34
2019-03-21T09:31:12.539Z,102956.77
2019-03-21T09:32:18.686Z,102966.91
2019-03-21T09:33:24.845Z,102970.25
2019-03-21T09:34:30.359Z,102975.73
2019-03-21T09:35:35.851Z,102974.49
2019-03-21T09:36:41.921Z,102972.75
2019-03-21T09:37:47.429Z,102973.78
2019-03-21T09:38:53.847Z,102977.80
2019-03-21T09:39:59.646Z,102987.32
2019-03-21T09:41:05.558Z,102987.33
2019-03-21T09:42:11.896Z,102994.38
2019-03-21T09:43:18.057Z,103001.08
2019-03-21T09:44:24.293Z,102999.34
2019-03-21T09:45:30.609Z,103009.67
2019-03-21T09:46:36.123Z,103009.72
2019-03-21T09:47:42.162Z,103004.38
2019-03-21T09:48:49.089Z,103018.38
2019-03-21T09:49:55.286Z,103015.27
2019-03-21T09:51:01.484Z,103023.09
2019-03-21T09:52:07.270Z,103031.59
2019-03-21T09:53:14.606Z,103026.37
2019-03-21T09:54:21.871Z,103029.67
2019-03-21T09:55:28.497Z,103033.59
2019-03-21T09:56:34.516Z,103031.98
2019-03-21T09:57:40.745Z,103036.78
2019-03-21T09:58:47.541Z,103037.09
2019-03-21T09:59:54.117Z,103036.75
2019-03-21T10:01:00.856Z,103039.08
2019-03-21T10:02:06.663Z,103037.19
2019-03-21T10:03:12.445Z,103052.69
2019-03-21T10:04:19.089Z,103046.51
2019-03-21T10:05:24.799Z,103051.02
2019-03-21T10:06:30.598Z,103050.46
2019-03-21T10:07:36.397Z,103055.83
2019-03-21T10:08:43.236Z,103053.78
2019-03-21T10:09:49.944Z,103051.58
2019-03-21T10:10:56.546Z,103055.20
2019-03-21T10:12:02.314Z,103051.33
2019-03-21T10:13:07.870Z,103053.22
2019-03-21T10:14:13.647Z,103055.50
2019-03-21T10:15:19.616Z,103051.30
2019-03-21T10:16:26.450Z,103052.81
2019-03-21T10:17:31.877Z,103055.25
2019-03-21T10:18:38.508Z,103051.83
2019-03-21T10:19:44.365Z,103055.96
2019-03-21T10:20:50.421Z,103048.25
2019-03-21T10:21:57.079Z,103047.97
2019-03-21T10:23:03.879Z,103053.17
2019-03-21T10:24:10.783Z,103047.19
2019-03-21T10:25:16.824Z,103048.75
2019-03-21T10:26:22.608Z,103049.87
2019-03-21T10:27:29.420Z,103048.36
2019-03-21T10:28:36.065Z,103051.78
2019-03-21T10:29:42.914Z,103043.72
2019-03-21T10:30:48.955Z,103046.72
2019-03-21T10:31:55.296Z,103050.80
2019-03-21T10:33:01.799Z,103039.43
2019-03-21T10:34:08.554Z,103047.17
2019-03-21T10:35:14.902Z,103049.01
2019-03-21T10:36:21.188Z,103041.16
2019-03-21T10:37:27.748Z,103042.78
2019-03-21T10:38:33.505Z,103048.57
2019-03-21T10:39:40.093Z,103048.56
2019-03-21T10:40:46.422Z,103046.66
2019-03-21T10:41:53.789Z,103047.86
2019-03-21T10:43:00.490Z,103044.23
2019-03-21T10:44:06.359Z,103041.55
2019-03-21T10:45:12.107Z,103040.89
2019-03-21T10:46:18.222Z,103044.68
2019-03-21T10:47:24.422Z,103040.41
2019-03-21T10:48:30.386Z,103040.02
2019-03-21T10:49:36.718Z,103044.19
2019-03-21T10:50:43.396Z,103040.23
2019-03-21T10:51:55.111Z,103041.17
2019-03-21T10:52:58.589Z,103042.42
2019-03-21T10:54:05.226Z,103039.63
2019-03-21T10:55:11.325Z,103037.02
2019-03-21T10:56:17.731Z,103040.34
2019-03-21T10:57:24.475Z,103037.20
2019-03-21T10:58:30.561Z,103037.73
2019-03-21T10:59:38.437Z,103030.36
2019-03-21T11:00:44.214Z,103033.84
2019-03-21T11:01:49.708Z,103037.23
2019-03-21T11:02:59.379Z,103029.55
2019-03-21T11:04:04.917Z,103036.08
2019-03-21T11:05:10.434Z,103027.66
2019-03-21T11:06:17.041Z,103028.00
2019-03-21T11:07:20.175Z,103034.00
2019-03-21T11:08:27.162Z,103021.30
2019-03-21T11:09:33.046Z,103024.13
2019-03-21T11:10:40.148Z,103024.72
2019-03-21T11:11:45.664Z,103021.99
2019-03-21T11:12:52.526Z,103019.09
2019-03-21T11:13:59.177Z,103022.74
2019-03-21T11:15:05.039Z,103020.72
2019-03-21T11:16:11.621Z,103016.98
2019-03-21T11:17:18.465Z,103014.08
2019-03-21T11:18:35.787Z,103017.64
2019-03-21T11:19:33.154Z,103017.34
2019-03-21T11:20:40.372Z,103011.30
2019-03-21T11:21:47.369Z,103016.49
2019-03-21T11:22:55.785Z,103013.77
2019-03-21T11:24:01.990Z,103016.09
2019-03-21T11:25:08.120Z,103019.75
2019-03-21T11:26:13.954Z,103018.02
2019-03-21T11:27:20.837Z,103011.94
2019-03-21T11:28:26.877Z,103012.05
2019-03-21T11:29:32.907Z,103008.34
2019-03-21T11:30:43.279Z,102999.02
2019-03-21T11:31:50.900Z,102999.44
2019-03-21T11:32:57.554Z,103003.22
2019-03-21T11:34:03.599Z,103002.84
2019-03-21T11:35:09.661Z,102998.27
2019-03-21T11:36:15.782Z,102996.83
2019-03-21T11:37:21.606Z,102999.05
2019-03-21T11:38:28.827Z,102993.20
2019-03-21T11:39:34.601Z,102993.28
2019-03-21T11:40:40.398Z,102993.13
2019-03-21T11:41:46.173Z,102981.25
2019-03-21T11:42:51.682Z,102990.61
2019-03-21T11:43:58.073Z,102992.63
2019-03-21T11:45:03.887Z,102995.42
2019-03-21T11:46:09.910Z,102988.29
2019-03-21T11:47:15.688Z,102980.64
2019-03-21T11:48:22.496Z,102983.75
2019-03-21T11:49:28.079Z,102979.84
2019-03-21T11:50:34.987Z,102979.11
2019-03-21T11:51:43.369Z,102978.27
2019-03-21T11:52:50.526Z,102980.38
2019-03-21T11:53:57.570Z,102988.33
2019-03-21T11:55:04.407Z,103002.41
2019-03-21T11:56:13.078Z,103003.26
2019-03-21T11:57:19.276Z,103006.44
2019-03-21T11:58:24.988Z,103007.97
2019-03-21T11:59:41.604Z,103012.19
2019-03-21T12:00:43.741Z,103012.14
2019-03-21T12:01:49.607Z,103012.32
2019-03-21T12:02:57.278Z,103006.39
2019-03-21T12:04:03.399Z,103002.81
2019-03-21T12:05:09.325Z,103006.41
2019-03-21T12:06:15.448Z,103007.30
2019-03-21T12:07:21.907Z,102998.69
2019-03-21T12:08:28.987Z,103001.33
2019-03-21T12:09:35.643Z,103001.45
2019-03-21T12:10:42.610Z,102995.97
2019-03-21T12:11:48.631Z,103000.55
2019-03-21T12:12:55.456Z,103002.76
2019-03-21T12:14:02.027Z,102985.05
2019-03-21T12:15:08.162Z,102987.37
2019-03-21T12:16:13.919Z,102983.98
2019-03-21T12:17:21.350Z,102985.34
2019-03-21T12:18:27.271Z,102976.42
2019-03-21T12:19:33.836Z,102978.33
2019-03-21T12:20:39.602Z,102976.95
2019-03-21T12:21:46.437Z,102969.94
2019-03-21T12:22:52.274Z,102970.89
2019-03-21T12:23:59.422Z,102969.45
2019-03-21T12:25:05.965Z,102970.04
2019-03-21T12:26:11.924Z,102971.56
2019-03-21T12:27:18.304Z,102965.61
2019-03-21T12:28:24.639Z,102959.53
2019-03-21T12:29:30.368Z,102962.89
2019-03-21T12:30:41.001Z,102955.25
2019-03-21T12:31:46.908Z,102956.84
2019-03-21T12:32:53.741Z,102951.49
2019-03-21T12:34:00.208Z,102956.13
2019-03-21T12:35:07.181Z,102946.62
2019-03-21T12:36:14.489Z,102934.50
2019-03-21T12:37:20.551Z,102930.84
2019-03-21T12:38:26.064Z,102920.20
2019-03-21T12:39:31.945Z,102923.34
2019-03-21T12:40:38.886Z,102924.28
2019-03-21T12:41:44.392Z,102927.83
2019-03-21T12:42:50.728Z,102928.55
2019-03-21T12:43:56.494Z,102924.16
2019-03-21T12:45:03.316Z,102923.09